createdAt,value
2019-04-16T00:03:45.809Z,77.10
2019-04-16T00:06:48.098Z,77.40
2019-04-16T00:09:39.619Z,77.90
2019-04-16T00:12:39.295Z,78.10
2019-04-16T00:15:19.070Z,78.10
2019-04-16T00:17:59.174Z,78.40
2019-04-16T00:24:04.185Z,78.60
2019-04-16T00:26:44.169Z,78.40
2019-04-16T00:29:24.374Z,78.80
2019-04-16T00:35:07.417Z,80.10
2019-04-16T00:37:51.469Z,79.60
2019-04-16T00:40:29.845Z,79.50
2019-04-16T00:43:10.088Z,79.70
2019-04-16T00:45:50.446Z,79.80
2019-04-16T00:48:30.351Z,79.60
2019-04-16T00:51:10.312Z,79.90
2019-04-16T00:53:50.613Z,79.80
2019-04-16T00:56:30.709Z,80.20
2019-04-16T00:59:10.813Z,78.70
2019-04-16T01:01:51.082Z,79.00
2019-04-16T01:04:31.182Z,79.20
2019-04-16T01:07:11.224Z,79.90
2019-04-16T01:09:51.236Z,79.30
2019-04-16T01:12:31.446Z,79.20
2019-04-16T01:15:11.503Z,78.90
2019-04-16T01:17:51.642Z,79.10
2019-04-16T01:20:31.585Z,79.10
2019-04-16T01:23:11.908Z,78.90
2019-04-16T01:25:55.315Z,78.80
2019-04-16T01:28:36.764Z,79.00
2019-04-16T01:34:51.013Z,79.50
2019-04-16T01:43:34.688Z,79.60
2019-04-16T01:46:15.130Z,80.00
2019-04-16T01:48:54.997Z,80.00
2019-04-16T01:51:37.673Z,80.30
2019-04-16T01:54:17.042Z,80.80
2019-04-16T01:56:59.518Z,81.30
2019-04-16T01:59:39.161Z,81.40
2019-04-16T02:02:19.106Z,81.60
2019-04-16T02:04:59.295Z,81.60
2019-04-16T02:07:39.079Z,81.90
2019-04-16T02:10:19.239Z,81.60
2019-04-16T02:12:59.364Z,81.50
2019-04-16T02:15:39.637Z,81.30
2019-04-16T02:18:19.717Z,81.00
2019-04-16T02:20:59.934Z,80.90
2019-04-16T02:23:39.741Z,81.10
2019-04-16T02:26:20.606Z,81.30
2019-04-16T02:29:01.895Z,81.50
2019-04-16T02:31:42.032Z,81.50
2019-04-16T02:34:22.550Z,81.60
2019-04-16T02:37:03.226Z,81.80
2019-04-16T02:39:50.289Z,81.90
2019-04-16T02:42:30.724Z,82.30
2019-04-16T02:44:54.745Z,82.60
2019-04-16T02:47:39.686Z,82.90
2019-04-16T02:50:21.195Z,82.80
2019-04-16T02:56:23.207Z,82.90
2019-04-16T02:59:11.827Z,83.20
2019-04-16T03:04:58.186Z,83.20
2019-04-16T03:07:35.983Z,83.60
2019-04-16T03:10:16.015Z,83.60
2019-04-16T03:12:56.127Z,83.90
2019-04-16T03:15:43.173Z,83.80
2019-04-16T03:21:27.516Z,84.30
2019-04-16T03:24:09.553Z,84.20
2019-04-16T03:26:51.249Z,84.20
2019-04-16T03:29:31.958Z,84.00
2019-04-16T03:32:14.425Z,84.20
2019-04-16T03:34:54.192Z,84.20
2019-04-16T03:37:34.759Z,84.40
2019-04-16T03:40:18.259Z,84.20
2019-04-16T03:42:59.307Z,84.00
2019-04-16T03:45:26.357Z,84.00
2019-04-16T03:48:06.159Z,84.20
2019-04-16T03:50:46.464Z,84.30
2019-04-16T03:53:26.253Z,84.00
2019-04-16T03:56:06.625Z,84.10
2019-04-16T03:58:46.595Z,84.00
2019-04-16T04:01:26.851Z,84.00
2019-04-16T04:04:07.078Z,84.00
2019-04-16T04:06:50.674Z,84.20
2019-04-16T04:09:30.947Z,84.30
2019-04-16T04:12:13.330Z,84.50
2019-04-16T04:14:54.258Z,84.90
2019-04-16T04:17:38.575Z,84.80
2019-04-16T04:20:19.058Z,85.30
2019-04-16T04:22:58.898Z,85.00
2019-04-16T04:25:26.512Z,85.20
2019-04-16T04:28:18.519Z,85.40
2019-04-16T04:31:02.687Z,85.10
2019-04-16T04:33:43.078Z,85.10
2019-04-16T04:36:27.115Z,85.10
2019-04-16T04:39:08.960Z,84.70
2019-04-16T04:41:52.616Z,85.00
2019-04-16T04:44:33.580Z,84.40
2019-04-16T04:47:15.501Z,84.40
2019-04-16T04:49:56.150Z,84.60
2019-04-16T04:52:36.313Z,84.40
2019-04-16T04:55:16.487Z,84.20
2019-04-16T04:57:56.409Z,83.90
2019-04-16T05:00:37.458Z,84.10
2019-04-16T05:03:38.091Z,83.80
2019-04-16T05:06:26.843Z,84.00
2019-04-16T05:09:05.225Z,84.00
2019-04-16T05:11:48.573Z,83.60
2019-04-16T05:14:27.230Z,83.70
2019-04-16T05:17:07.569Z,83.50
2019-04-16T05:19:47.577Z,83.50
2019-04-16T05:22:27.913Z,83.30
2019-04-16T05:25:08.081Z,83.50
2019-04-16T05:27:48.210Z,83.70
2019-04-16T05:30:28.259Z,83.30
2019-04-16T05:32:55.869Z,83.00
2019-04-16T05:35:42.889Z,84.10
2019-04-16T05:38:30.126Z,83.30
2019-04-16T05:41:13.623Z,82.70
2019-04-16T05:43:52.057Z,82.50
2019-04-16T05:46:32.677Z,82.10
2019-04-16T05:49:12.613Z,81.70
2019-04-16T05:51:52.589Z,82.30
2019-04-16T05:54:52.169Z,83.00
2019-04-16T05:57:34.260Z,82.50
2019-04-16T06:00:41.761Z,81.60
2019-04-16T06:03:22.436Z,80.70
2019-04-16T06:06:02.927Z,78.90
2019-04-16T06:08:42.845Z,74.70
2019-04-16T06:11:29.804Z,75.30
2019-04-16T06:14:25.932Z,75.50
2019-04-16T06:17:31.256Z,75.10
2019-04-16T06:20:26.999Z,74.30
2019-04-16T06:23:26.239Z,72.80
2019-04-16T06:26:25.373Z,70.70
2019-04-16T06:29:15.520Z,69.10
2019-04-16T06:32:02.939Z,65.20
2019-04-16T06:35:02.745Z,64.20
2019-04-16T06:37:49.184Z,63.10
2019-04-16T06:40:48.391Z,60.90
2019-04-16T06:43:30.529Z,58.70
2019-04-16T06:46:29.866Z,58.30
2019-04-16T06:49:29.154Z,57.10
2019-04-16T06:52:28.330Z,56.40
2019-04-16T06:55:23.767Z,55.90
2019-04-16T06:58:23.126Z,55.90
2019-04-16T07:01:26.045Z,55.50
2019-04-16T07:04:12.557Z,55.10
2019-04-16T07:07:12.062Z,54.40
2019-04-16T07:09:56.953Z,54.90
2019-04-16T07:12:38.499Z,54.40
2019-04-16T07:15:22.579Z,54.00
2019-04-16T07:18:02.509Z,54.30
2019-04-16T07:20:45.744Z,54.20
2019-04-16T07:23:25.814Z,53.50
2019-04-16T07:26:06.332Z,52.80
2019-04-16T07:28:51.791Z,52.60
2019-04-16T07:31:37.160Z,52.00
2019-04-16T07:34:36.643Z,51.60
2019-04-16T07:37:23.749Z,49.50
2019-04-16T07:40:23.522Z,51.00
2019-04-16T07:43:23.485Z,51.60
2019-04-16T07:46:12.373Z,52.00
2019-04-16T07:49:14.699Z,51.60
2019-04-16T07:52:14.498Z,51.20
2019-04-16T07:55:13.451Z,50.90
2019-04-16T07:57:53.535Z,47.70
2019-04-16T08:00:40.336Z,48.20
2019-04-16T08:03:16.867Z,47.80
2019-04-16T08:05:56.743Z,47.20
2019-04-16T08:08:37.389Z,47.00
2019-04-16T08:11:17.177Z,46.10
2019-04-16T08:13:57.373Z,45.30
2019-04-16T08:16:47.316Z,44.80
2019-04-16T08:19:20.066Z,44.40
2019-04-16T08:22:00.195Z,43.70
2019-04-16T08:27:26.443Z,42.80
2019-04-16T08:33:01.583Z,42.20
2019-04-16T08:35:41.594Z,41.10
2019-04-16T08:38:21.987Z,41.70
2019-04-16T08:41:02.073Z,40.20
2019-04-16T08:43:41.888Z,40.20
2019-04-16T08:46:22.061Z,40.50
2019-04-16T08:49:02.138Z,40.00
2019-04-16T08:51:42.328Z,39.50
2019-04-16T08:54:22.407Z,38.80
2019-04-16T08:57:02.761Z,40.30
2019-04-16T08:59:43.697Z,39.40
2019-04-16T09:02:27.066Z,39.40
2019-04-16T09:05:08.220Z,39.40
2019-04-16T09:07:50.612Z,38.30
2019-04-16T09:10:31.068Z,37.80
2019-04-16T09:13:15.197Z,37.60
2019-04-16T09:15:55.070Z,36.70
2019-04-16T09:18:54.492Z,37.50
2019-04-16T09:21:34.554Z,37.30
2019-04-16T09:24:26.380Z,36.70
2019-04-16T09:30:20.749Z,34.50
2019-04-16T09:33:19.670Z,35.70
2019-04-16T09:36:18.756Z,35.90
2019-04-16T09:39:08.141Z,35.50
2019-04-16T09:41:49.333Z,35.90
2019-04-16T09:44:32.475Z,35.10
2019-04-16T09:47:12.118Z,33.60
2019-04-16T09:49:52.130Z,33.80
2019-04-16T09:52:32.329Z,32.20
2019-04-16T09:55:15.213Z,33.20
2019-04-16T09:57:54.627Z,33.40
2019-04-16T10:00:35.226Z,34.30
2019-04-16T10:03:38.297Z,33.30
2019-04-16T10:06:18.090Z,32.80
2019-04-16T10:08:58.043Z,32.80
2019-04-16T10:11:38.028Z,32.50
2019-04-16T10:14:18.205Z,32.70
2019-04-16T10:16:58.337Z,31.90
2019-04-16T10:19:43.022Z,33.20
2019-04-16T10:22:21.332Z,31.70
2019-04-16T10:28:14.840Z,31.90
2019-04-16T10:30:56.328Z,31.40
2019-04-16T10:33:36.876Z,31.10
2019-04-16T10:36:16.892Z,31.00
2019-04-16T10:42:15.593Z,30.00
2019-04-16T10:45:15.945Z,31.00
2019-04-16T10:48:18.338Z,31.60
2019-04-16T10:51:17.667Z,30.70
2019-04-16T10:54:06.571Z,31.60
2019-04-16T10:57:11.598Z,30.90
2019-04-16T10:59:59.180Z,31.20
2019-04-16T11:02:46.192Z,30.60
2019-04-16T11:05:30.304Z,31.10
2019-04-16T11:08:11.640Z,30.80
2019-04-16T11:10:39.864Z,30.00
2019-04-16T11:13:59.329Z,30.00
2019-04-16T11:19:23.108Z,28.50
2019-04-16T11:22:04.146Z,29.00
2019-04-16T11:24:45.099Z,27.70
2019-04-16T11:27:25.309Z,27.70
2019-04-16T11:30:07.330Z,28.20
2019-04-16T11:32:47.557Z,27.50
2019-04-16T11:35:29.252Z,27.20
2019-04-16T11:38:09.649Z,28.40
2019-04-16T11:40:49.938Z,27.60
2019-04-16T11:43:29.712Z,26.60
2019-04-16T11:46:09.673Z,27.40
2019-04-16T11:48:50.320Z,26.90
2019-04-16T11:54:29.121Z,27.10
2019-04-16T11:57:11.385Z,26.80
2019-04-16T11:59:49.162Z,27.30
2019-04-16T12:02:49.280Z,26.70
2019-04-16T12:05:39.181Z,26.80
2019-04-16T12:08:34.875Z,26.40
2019-04-16T12:11:25.812Z,25.20
2019-04-16T12:14:11.705Z,25.90
2019-04-16T12:17:11.022Z,24.70
2019-04-16T12:20:01.188Z,24.90
2019-04-16T12:23:07.712Z,25.70
2019-04-16T12:26:10.784Z,24.60
2019-04-16T12:29:09.994Z,24.90
2019-04-16T12:32:09.408Z,25.10
2019-04-16T12:35:15.938Z,25.00
2019-04-16T12:38:23.315Z,25.30
2019-04-16T12:41:29.804Z,25.80
2019-04-16T12:44:45.260Z,25.70
2019-04-16T12:47:40.377Z,25.50
2019-04-16T12:50:39.974Z,25.30
2019-04-16T12:53:31.106Z,26.30
2019-04-16T12:56:30.367Z,26.00
2019-04-16T12:59:29.388Z,26.40
2019-04-16T13:02:28.837Z,26.10
2019-04-16T13:05:21.213Z,25.50
2019-04-16T13:08:21.031Z,25.80
2019-04-16T13:11:20.018Z,25.00
2019-04-16T13:14:19.477Z,25.90
2019-04-16T13:17:21.765Z,26.20
2019-04-16T13:20:11.638Z,24.80
2019-04-16T13:22:54.331Z,25.60
2019-04-16T13:25:41.582Z,25.20
2019-04-16T13:28:23.157Z,25.30
2019-04-16T13:31:04.153Z,24.80
2019-04-16T13:33:46.107Z,24.50
2019-04-16T13:36:27.837Z,25.80
2019-04-16T13:39:27.263Z,24.50
2019-04-16T13:42:07.162Z,24.30
2019-04-16T13:47:56.159Z,24.60
2019-04-16T13:50:55.645Z,24.40
2019-04-16T13:53:54.973Z,24.20
2019-04-16T13:56:40.521Z,23.80
2019-04-16T13:59:40.404Z,23.40
2019-04-16T14:02:42.661Z,24.10
2019-04-16T14:05:22.782Z,23.80
2019-04-16T14:08:02.905Z,24.10
2019-04-16T14:10:43.363Z,25.00
2019-04-16T14:13:23.927Z,24.80
2019-04-16T14:16:05.970Z,24.80
2019-04-16T14:18:45.991Z,25.30
2019-04-16T14:21:26.093Z,25.90
2019-04-16T14:24:06.292Z,25.60
2019-04-16T14:26:46.417Z,25.80
2019-04-16T14:29:26.589Z,26.00
2019-04-16T14:32:06.470Z,26.30
2019-04-16T14:37:42.631Z,27.30
2019-04-16T14:40:23.401Z,27.90
2019-04-16T14:43:04.167Z,28.40
2019-04-16T14:45:57.672Z,28.10
2019-04-16T14:48:28.260Z,28.10
2019-04-16T14:51:10.352Z,28.40
2019-04-16T14:54:10.054Z,28.50
2019-04-16T14:56:52.494Z,28.70
2019-04-16T14:59:40.566Z,29.30
2019-04-16T15:02:43.267Z,29.00
2019-04-16T15:05:44.662Z,29.60
2019-04-16T15:08:35.538Z,29.70
2019-04-16T15:11:42.187Z,30.20
2019-04-16T15:14:26.819Z,30.30
2019-04-16T15:17:32.131Z,30.20
2019-04-16T15:20:22.865Z,29.90
2019-04-16T15:23:22.572Z,30.30
2019-04-16T15:26:21.258Z,30.20
2019-04-16T15:29:12.367Z,30.30
2019-04-16T15:32:05.962Z,30.00
2019-04-16T15:34:47.471Z,30.40
2019-04-16T15:37:33.568Z,30.60
2019-04-16T15:43:33.511Z,31.10
2019-04-16T15:46:35.062Z,31.50
2019-04-16T15:49:23.102Z,32.50
2019-04-16T15:52:22.978Z,32.50
2019-04-16T15:55:28.182Z,32.90
2019-04-16T15:58:27.221Z,33.10
2019-04-16T16:01:32.434Z,33.40
2019-04-16T16:04:34.866Z,33.50
2019-04-16T16:07:08.199Z,33.80
2019-04-16T16:10:14.216Z,34.00
2019-04-16T16:12:54.786Z,34.40
2019-04-16T16:15:40.127Z,36.20
2019-04-16T16:18:16.870Z,36.70
2019-04-16T16:20:57.207Z,37.00
2019-04-16T16:23:37.010Z,37.60
2019-04-16T16:26:18.226Z,37.00
2019-04-16T16:28:58.512Z,35.80
2019-04-16T16:31:38.502Z,37.10
2019-04-16T16:34:18.589Z,37.50
2019-04-16T16:37:00.071Z,36.00
2019-04-16T16:39:40.463Z,36.50
2019-04-16T16:42:20.574Z,36.80
2019-04-16T16:45:01.857Z,35.70
2019-04-16T16:47:42.691Z,36.00
2019-04-16T16:50:22.709Z,36.30
2019-04-16T16:56:24.269Z,36.30
2019-04-16T16:59:21.408Z,36.50
2019-04-16T17:02:20.999Z,36.00
2019-04-16T17:05:01.305Z,35.50
2019-04-16T17:07:41.173Z,35.90
2019-04-16T17:10:21.086Z,35.80
2019-04-16T17:13:01.195Z,36.70
2019-04-16T17:15:41.341Z,36.30
2019-04-16T17:18:21.380Z,36.90
2019-04-16T17:21:01.626Z,37.60
2019-04-16T17:23:42.009Z,38.10
2019-04-16T17:26:22.345Z,38.70
2019-04-16T17:29:02.383Z,38.80
2019-04-16T17:31:42.438Z,38.30
2019-04-16T17:34:22.418Z,39.10
2019-04-16T17:37:02.759Z,39.30
2019-04-16T17:39:46.104Z,39.40
2019-04-16T17:42:36.914Z,40.30
2019-04-16T17:48:56.691Z,40.80
2019-04-16T17:51:55.816Z,41.60
2019-04-16T17:54:39.212Z,42.20
2019-04-16T17:57:42.537Z,41.90
2019-04-16T18:00:40.300Z,41.70
2019-04-16T18:03:42.633Z,42.90
2019-04-16T18:06:41.809Z,43.40
2019-04-16T18:09:29.639Z,44.20
2019-04-16T18:12:29.051Z,44.90
2019-04-16T18:18:40.390Z,43.80
2019-04-16T18:21:39.783Z,43.80
2019-04-16T18:24:41.586Z,44.10
2019-04-16T18:27:43.989Z,44.40
2019-04-16T18:30:43.410Z,44.30
2019-04-16T18:33:45.722Z,44.50
2019-04-16T18:36:29.433Z,45.50
2019-04-16T18:39:29.302Z,45.50
2019-04-16T18:42:16.384Z,46.60
2019-04-16T18:45:15.579Z,47.10
2019-04-16T18:48:04.547Z,47.50
2019-04-16T18:50:41.587Z,48.00
2019-04-16T18:53:21.801Z,48.50
2019-04-16T18:56:02.050Z,49.20
2019-04-16T18:58:42.151Z,49.10
2019-04-16T19:01:25.209Z,48.90
2019-04-16T19:04:05.749Z,48.60
2019-04-16T19:06:46.338Z,50.50
2019-04-16T19:09:26.658Z,51.10
2019-04-16T19:12:07.509Z,50.50
2019-04-16T19:14:48.111Z,49.40
2019-04-16T19:17:28.283Z,49.90
2019-04-16T19:20:08.787Z,49.40
2019-04-16T19:22:50.759Z,49.90
2019-04-16T19:25:30.609Z,50.50
2019-04-16T19:28:10.704Z,51.10
2019-04-16T19:30:51.038Z,52.00
2019-04-16T19:33:37.886Z,53.20
2019-04-16T19:36:13.011Z,54.00
2019-04-16T19:38:53.775Z,54.40
2019-04-16T19:41:33.670Z,55.20
2019-04-16T19:44:13.724Z,55.30
2019-04-16T19:46:54.353Z,55.90
2019-04-16T19:49:34.849Z,56.40
2019-04-16T19:52:17.265Z,56.70
2019-04-16T19:54:57.294Z,57.00
2019-04-16T19:57:38.673Z,57.30
2019-04-16T20:00:23.042Z,58.00
2019-04-16T20:03:03.165Z,58.00
2019-04-16T20:05:45.356Z,58.10
2019-04-16T20:08:25.385Z,58.80
2019-04-16T20:11:06.537Z,59.40
2019-04-16T20:13:36.219Z,59.70
2019-04-16T20:19:10.630Z,61.50
2019-04-16T20:21:50.748Z,61.70
2019-04-16T20:24:30.854Z,61.10
2019-04-16T20:27:10.931Z,61.80
2019-04-16T20:33:03.231Z,63.00
2019-04-16T20:35:43.422Z,62.90
2019-04-16T20:38:29.023Z,63.10
2019-04-16T20:41:06.008Z,63.60
2019-04-16T20:43:46.470Z,63.90
2019-04-16T20:46:26.372Z,64.30
2019-04-16T20:49:10.385Z,64.60
2019-04-16T20:51:48.551Z,64.70
2019-04-16T20:54:28.502Z,65.00
2019-04-16T20:57:08.381Z,64.80
2019-04-16T20:59:48.817Z,65.40
2019-04-16T21:02:30.765Z,66.00
2019-04-16T21:05:22.055Z,66.00
2019-04-16T21:07:52.858Z,66.40
2019-04-16T21:10:35.611Z,66.40
2019-04-16T21:13:16.247Z,66.80
2019-04-16T21:16:01.214Z,67.30
2019-04-16T21:18:39.201Z,67.70
2019-04-16T21:21:19.617Z,67.90
2019-04-16T21:24:06.565Z,68.30
2019-04-16T21:26:44.280Z,69.10
2019-04-16T21:29:33.287Z,68.60
2019-04-16T21:35:41.430Z,68.90
2019-04-16T21:38:29.629Z,69.60
2019-04-16T21:41:10.973Z,69.30
2019-04-16T21:43:50.881Z,69.70
2019-04-16T21:46:31.456Z,69.70
2019-04-16T21:49:00.864Z,70.00
2019-04-16T21:52:07.289Z,70.30
2019-04-16T21:54:46.985Z,70.60
2019-04-16T21:57:27.251Z,70.80
2019-04-16T22:00:09.314Z,70.50
2019-04-16T22:02:38.825Z,71.00
2019-04-16T22:05:26.765Z,71.30
2019-04-16T22:08:06.453Z,71.30
2019-04-16T22:10:46.809Z,72.00
2019-04-16T22:13:26.350Z,72.90
2019-04-16T22:16:06.322Z,73.50
2019-04-16T22:18:46.465Z,74.10
2019-04-16T22:21:27.002Z,74.80
2019-04-16T22:24:06.655Z,74.80
2019-04-16T22:26:46.678Z,75.00
2019-04-16T22:29:26.913Z,75.10
2019-04-16T22:32:06.622Z,75.40
2019-04-16T22:34:46.561Z,75.60
2019-04-16T22:37:26.556Z,76.50
2019-04-16T22:40:25.888Z,76.10
2019-04-16T22:46:28.376Z,75.10
2019-04-16T22:49:08.147Z,74.60
2019-04-16T22:54:52.140Z,74.40
2019-04-16T22:57:30.921Z,75.30
2019-04-16T23:03:20.358Z,75.80
2019-04-16T23:06:05.143Z,76.10
2019-04-16T23:08:43.526Z,76.60
2019-04-16T23:11:24.573Z,76.70
2019-04-16T23:14:04.297Z,76.00
2019-04-16T23:16:44.544Z,76.10
2019-04-16T23:22:05.623Z,76.60
2019-04-16T23:27:37.232Z,76.30
2019-04-16T23:33:15.501Z,76.60
2019-04-16T23:35:55.476Z,76.60
2019-04-16T23:38:35.683Z,76.60
2019-04-16T23:41:16.768Z,76.20
2019-04-16T23:44:16.360Z,76.60
2019-04-16T23:50:13.706Z,76.40
2019-04-16T23:52:54.138Z,76.30
2019-04-16T23:55:53.484Z,75.80
2019-04-16T23:59:01.422Z,76.40
